Time;durP1;ratioP1;P1;durP2;ratioP2;P2;SDS_P1;SDS_P2;PMS_P1;PMS_P2;Temp;Humidity;BMP_temperature;BMP_pressure;BME280_temperature;BME280_humidity;BME280_pressure;Samples;Min_cycle;Max_cycle;Signal;HPM_P1;HPM_P2
2023/10/30 00:00:16;;;;;;;3.67;0.60;;;;;;;13.03;100.00;99122.50;5213602;28;20514;-77
2023/10/30 00:02:47;;;;;;;3.10;0.63;;;;;;;13.05;100.00;99132.91;5223062;28;20033;-77
2023/10/30 00:05:17;;;;;;;2.22;0.40;;;;;;;13.10;100.00;99141.28;5212047;28;20118;-76
2023/10/30 00:07:47;;;;;;;4.70;0.50;;;;;;;13.10;100.00;99142.09;5227116;28;20086;-78
2023/10/30 00:10:18;;;;;;;3.05;0.70;;;;;;;13.06;100.00;99145.91;5229797;28;20065;-77
2023/10/30 00:12:48;;;;;;;3.38;0.40;;;;;;;13.12;100.00;99155.13;5221879;28;20029;-76
2023/10/30 00:15:18;;;;;;;4.65;0.68;;;;;;;13.09;100.00;99160.59;5233685;28;20062;-77
2023/10/30 00:17:48;;;;;;;3.25;0.60;;;;;;;13.08;100.00;99162.34;5233805;28;20539;-76
2023/10/30 00:20:19;;;;;;;4.15;0.82;;;;;;;13.04;100.00;99162.69;5235080;28;20048;-77
2023/10/30 00:22:49;;;;;;;2.80;0.60;;;;;;;13.00;100.00;99162.06;5225350;28;20035;-77
2023/10/30 00:25:21;;;;;;;5.93;0.95;;;;;;;13.08;100.00;99180.72;5227871;28;20033;-76
2023/10/30 00:27:51;;;;;;;1.30;0.45;;;;;;;13.03;100.00;99182.81;5225853;28;20040;-74
2023/10/30 00:30:22;;;;;;;2.40;0.50;;;;;;;13.05;100.00;99186.19;5227500;28;20044;-77
2023/10/30 00:32:52;;;;;;;5.10;0.60;;;;;;;13.05;100.00;99196.66;5208381;28;20027;-75
2023/10/30 00:35:22;;;;;;;3.92;0.68;;;;;;;13.04;100.00;99178.44;5228591;28;20111;-76
2023/10/30 00:37:52;;;;;;;7.80;0.82;;;;;;;13.10;100.00;99184.06;5205041;28;20036;-76
2023/10/30 00:40:24;;;;;;;2.38;0.55;;;;;;;13.07;100.00;99194.78;5229022;28;20027;-76
2023/10/30 00:42:54;;;;;;;4.22;0.50;;;;;;;13.12;100.00;99183.97;5228992;28;20037;-76
2023/10/30 00:45:24;;;;;;;1.73;0.50;;;;;;;13.05;100.00;99186.19;5235463;28;20032;-73
2023/10/30 00:47:55;;;;;;;2.75;0.40;;;;;;;13.01;100.00;99189.09;5233755;28;20032;-76
2023/10/30 00:50:25;;;;;;;4.60;0.68;;;;;;;13.01;100.00;99195.22;5232873;28;20024;-73
2023/10/30 00:52:55;;;;;;;2.88;0.50;;;;;;;13.04;100.00;99196.78;5229823;28;20505;-76
2023/10/30 00:55:26;;;;;;;3.80;0.57;;;;;;;13.13;100.00;99197.00;5213515;28;20166;-77
2023/10/30 00:57:56;;;;;;;4.35;0.60;;;;;;;13.20;100.00;99206.13;5234972;28;20052;-77
2023/10/30 01:00:27;;;;;;;1.90;0.60;;;;;;;13.06;100.00;99215.88;5228419;28;20032;-76
2023/10/30 01:02:57;;;;;;;2.15;0.60;;;;;;;13.05;100.00;99222.06;5231249;28;20402;-76
2023/10/30 01:05:27;;;;;;;2.53;0.52;;;;;;;13.06;100.00;99226.38;5234470;28;20020;-77
2023/10/30 01:07:57;;;;;;;5.38;0.70;;;;;;;13.05;100.00;99214.22;5226551;28;20051;-76
2023/10/30 01:10:28;;;;;;;4.43;0.70;;;;;;;13.16;100.00;99230.91;5235149;28;20112;-76
2023/10/30 01:12:58;;;;;;;6.03;0.90;;;;;;;13.08;100.00;99233.19;5230335;28;20162;-76
2023/10/30 01:15:29;;;;;;;3.70;0.50;;;;;;;13.10;100.00;99227.84;5233306;28;20107;-75
2023/10/30 01:18:00;;;;;;;2.38;0.40;;;;;;;13.11;100.00;99232.16;5234381;28;20051;-76
2023/10/30 01:20:31;;;;;;;8.75;0.85;;;;;;;13.07;100.00;99226.25;5226043;22;20045;-72
2023/10/30 01:23:01;;;;;;;7.35;1.17;;;;;;;13.10;100.00;99228.66;5172076;28;20372;-72
2023/10/30 01:25:32;;;;;;;3.60;0.70;;;;;;;13.06;100.00;99229.81;5180863;28;20025;-72
2023/10/30 01:28:02;;;;;;;3.85;0.45;;;;;;;13.02;100.00;99223.09;5164093;28;20033;-72
2023/10/30 01:30:33;;;;;;;3.55;0.80;;;;;;;13.05;100.00;99227.31;5185476;28;20364;-72
2023/10/30 01:33:03;;;;;;;4.53;0.77;;;;;;;13.04;100.00;99225.66;5189285;28;20033;-72
2023/10/30 01:35:34;;;;;;;3.97;0.52;;;;;;;13.08;100.00;99227.94;5192401;28;20411;-72
2023/10/30 01:38:04;;;;;;;4.13;0.52;;;;;;;13.04;100.00;99230.88;5189502;28;20479;-72
2023/10/30 01:40:35;;;;;;;4.35;0.50;;;;;;;13.05;100.00;99235.19;5172768;28;20021;-72
2023/10/30 01:43:09;;;;;;;2.58;0.50;;;;;;;13.01;100.00;99234.53;5167695;28;20112;-72
2023/10/30 01:45:39;;;;;;;3.42;0.82;;;;;;;13.00;100.00;99230.25;5167613;28;20064;-72
2023/10/30 01:48:10;;;;;;;3.75;0.50;;;;;;;13.09;100.00;99224.38;5190514;28;20511;-72
2023/10/30 01:50:40;;;;;;;2.47;0.65;;;;;;;13.09;100.00;99218.28;5189415;28;20311;-72
2023/10/30 01:53:11;;;;;;;3.50;0.40;;;;;;;13.10;100.00;99214.72;5192307;28;20392;-72
2023/10/30 01:55:41;;;;;;;4.40;0.70;;;;;;;13.03;100.00;99216.09;5172022;28;20391;-72
2023/10/30 01:58:12;;;;;;;2.30;0.68;;;;;;;12.99;100.00;99211.97;5174975;28;20034;-72
2023/10/30 02:00:44;;;;;;;4.82;0.60;;;;;;;13.11;100.00;99221.66;5171913;28;20041;-72
2023/10/30 02:03:15;;;;;;;8.20;0.63;;;;;;;13.04;100.00;99217.78;5189061;28;20038;-72
2023/10/30 02:05:45;;;;;;;2.40;0.50;;;;;;;13.14;100.00;99216.19;5191106;28;20031;-72
2023/10/30 02:08:16;;;;;;;3.15;0.90;;;;;;;13.08;100.00;99221.88;5188881;28;20129;-72
2023/10/30 02:10:46;;;;;;;2.40;0.63;;;;;;;13.09;100.00;99218.28;5189082;28;20021;-72
2023/10/30 02:13:17;;;;;;;5.40;0.55;;;;;;;12.98;100.00;99202.44;5191545;28;20061;-72
2023/10/30 02:15:47;;;;;;;4.57;0.65;;;;;;;13.00;100.00;99214.50;5169454;28;20072;-72
2023/10/30 02:18:18;;;;;;;3.90;0.65;;;;;;;13.06;100.00;99214.09;5189095;28;20057;-72
2023/10/30 02:20:48;;;;;;;2.75;0.47;;;;;;;13.10;100.00;99209.47;5186794;28;20029;-72
2023/10/30 02:23:18;;;;;;;5.85;0.80;;;;;;;13.03;100.00;99201.19;5192607;28;20033;-72
2023/10/30 02:25:48;;;;;;;5.25;0.50;;;;;;;13.05;100.00;99196.66;5191558;28;20433;-72
2023/10/30 02:28:19;;;;;;;3.58;1.05;;;;;;;13.01;100.00;99204.84;5189131;28;20030;-72
2023/10/30 02:30:49;;;;;;;4.93;0.77;;;;;;;12.99;100.00;99196.25;5188426;28;20029;-72
2023/10/30 02:33:20;;;;;;;3.30;0.60;;;;;;;13.02;100.00;99199.50;5191420;28;20021;-72
2023/10/30 02:35:50;;;;;;;3.17;0.70;;;;;;;13.04;100.00;99196.78;5188407;28;20174;-72
2023/10/30 02:38:21;;;;;;;5.38;0.80;;;;;;;13.02;100.00;99201.28;5186898;28;20087;-72
2023/10/30 02:40:51;;;;;;;1.02;0.40;;;;;;;13.04;100.00;99199.41;5186406;28;20121;-72
2023/10/30 02:43:21;;;;;;;4.38;0.50;;;;;;;12.99;100.00;99196.25;5188791;28;20033;-72
2023/10/30 02:45:51;;;;;;;3.40;0.43;;;;;;;12.90;100.00;99196.84;5186676;28;20475;-72
2023/10/30 02:48:22;;;;;;;2.15;0.70;;;;;;;12.89;100.00;99195.16;5193594;28;20025;-72
2023/10/30 02:50:52;;;;;;;4.45;0.80;;;;;;;12.89;100.00;99198.59;5187611;28;20017;-72
2023/10/30 02:53:22;;;;;;;4.80;0.60;;;;;;;12.85;100.00;99203.31;5196300;28;20166;-72
2023/10/30 02:55:53;;;;;;;4.78;0.60;;;;;;;12.80;100.00;99215.91;5193111;28;20519;-72
2023/10/30 02:58:23;;;;;;;2.85;0.77;;;;;;;12.84;100.00;99220.81;5190737;28;20029;-72
2023/10/30 03:00:53;;;;;;;6.28;0.80;;;;;;;12.78;100.00;99223.88;5185445;28;20124;-72
2023/10/30 03:03:24;;;;;;;3.78;0.60;;;;;;;12.82;100.00;99227.97;5190465;28;20040;-72
2023/10/30 03:05:55;;;;;;;2.90;0.98;;;;;;;12.82;100.00;99229.75;5170011;28;20033;-72
2023/10/30 03:08:25;;;;;;;5.05;0.95;;;;;;;12.82;100.00;99230.56;5186041;28;20255;-72
2023/10/30 03:10:55;;;;;;;4.43;0.63;;;;;;;12.88;100.00;99242.44;5185226;28;20026;-72
2023/10/30 03:13:26;;;;;;;2.85;0.52;;;;;;;12.83;100.00;99234.06;5157716;28;20109;-72
2023/10/30 03:15:56;;;;;;;4.15;0.60;;;;;;;12.91;100.00;99241.28;5174490;28;20057;-72
2023/10/30 03:18:26;;;;;;;3.45;1.02;;;;;;;13.03;100.00;99239.69;5171217;28;20026;-72
2023/10/30 03:20:56;;;;;;;3.28;0.45;;;;;;;12.94;100.00;99245.53;5176906;28;20475;-72
2023/10/30 03:23:27;;;;;;;5.68;0.60;;;;;;;12.94;100.00;99240.28;5179148;28;20033;-72
2023/10/30 03:25:57;;;;;;;2.65;0.50;;;;;;;12.96;100.00;99240.22;5180437;28;20053;-72
2023/10/30 03:28:28;;;;;;;4.53;0.80;;;;;;;12.85;100.00;99240.84;5179375;28;20510;-72
2023/10/30 03:31:05;;;;;;;5.45;0.93;;;;;;;12.97;100.00;99242.72;5179234;28;20280;-72
2023/10/30 03:33:35;;;;;;;7.03;0.80;;;;;;;12.99;100.00;99244.31;5177877;28;20217;-72
2023/10/30 03:36:06;;;;;;;3.47;0.73;;;;;;;12.93;100.00;99236.00;5180716;28;20549;-72
2023/10/30 03:38:36;;;;;;;6.50;1.08;;;;;;;12.89;100.00;99239.75;5181980;28;20026;-72
2023/10/30 03:41:07;;;;;;;6.07;1.50;;;;;;;12.88;100.00;99241.50;5172800;28;20383;-72
2023/10/30 03:43:37;;;;;;;1.77;0.40;;;;;;;12.91;100.00;99240.47;5163455;28;20045;-72
2023/10/30 03:46:07;;;;;;;4.55;0.90;;;;;;;12.90;100.00;99251.91;5180979;28;20109;-72
2023/10/30 03:48:38;;;;;;;1.98;0.50;;;;;;;12.85;100.00;99245.28;5183484;28;20053;-72
2023/10/30 03:51:08;;;;;;;4.72;0.68;;;;;;;12.82;100.00;99253.34;5158659;28;20033;-72
2023/10/30 03:53:38;;;;;;;3.58;0.70;;;;;;;12.90;100.00;99251.91;5176156;28;20085;-72
2023/10/30 03:56:08;;;;;;;4.68;0.60;;;;;;;12.76;100.00;99266.84;5156795;28;20021;-72
2023/10/30 03:58:39;;;;;;;4.90;0.63;;;;;;;12.78;100.00;99262.38;5177531;28;20107;-72
2023/10/30 04:01:09;;;;;;;10.38;1.17;;;;;;;12.78;100.00;99262.38;5176139;28;20044;-72
2023/10/30 04:03:40;;;;;;;6.18;1.02;;;;;;;12.74;100.00;99258.22;5179650;28;20034;-72
2023/10/30 04:06:10;;;;;;;6.18;1.10;;;;;;;12.81;100.00;99270.84;5185118;28;20026;-72
2023/10/30 04:08:40;;;;;;;4.60;0.60;;;;;;;12.77;100.00;99258.06;5180612;28;20029;-72
2023/10/30 04:11:13;;;;;;;4.68;0.60;;;;;;;12.74;100.00;99259.09;5186971;28;20028;-72
2023/10/30 04:13:44;;;;;;;6.05;0.57;;;;;;;12.74;100.00;99271.34;5179439;28;20430;-72
2023/10/30 04:16:16;;;;;;;4.22;0.73;;;;;;;12.75;100.00;99273.03;5176305;28;20069;-72
2023/10/30 04:18:46;;;;;;;4.05;0.80;;;;;;;12.80;100.00;99269.16;5179643;28;20057;-72
2023/10/30 04:21:17;;;;;;;3.72;0.65;;;;;;;12.90;100.00;99268.47;5166607;28;20196;-72
2023/10/30 04:23:47;;;;;;;3.40;0.85;;;;;;;12.87;100.00;99270.47;5180757;28;20033;-72
2023/10/30 04:26:19;;;;;;;5.50;0.90;;;;;;;12.88;100.00;99273.91;5182484;28;20462;-71
2023/10/30 04:28:49;;;;;;;3.58;0.70;;;;;;;12.86;100.00;99263.53;5181602;28;20040;-72
2023/10/30 04:31:20;;;;;;;4.32;0.60;;;;;;;12.80;100.00;99244.75;5178408;28;20026;-72
2023/10/30 04:33:50;;;;;;;6.90;0.70;;;;;;;12.74;100.00;99253.84;5180612;28;20029;-72
2023/10/30 04:36:20;;;;;;;3.63;0.80;;;;;;;12.84;100.00;99260.16;5178833;28;20305;-72
2023/10/30 04:38:51;;;;;;;4.65;0.70;;;;;;;12.79;100.00;99250.94;5179721;28;20326;-72
2023/10/30 04:41:21;;;;;;;3.10;0.63;;;;;;;12.77;100.00;99264.13;5177647;28;20075;-72
2023/10/30 04:43:51;;;;;;;3.58;1.10;;;;;;;12.83;100.00;99261.09;5178524;28;20030;-72
2023/10/30 04:46:22;;;;;;;6.70;0.82;;;;;;;12.79;100.00;99254.38;5182472;28;20130;-72
2023/10/30 04:48:52;;;;;;;3.03;0.80;;;;;;;12.76;100.00;99265.06;5181399;28;20041;-72
2023/10/30 04:51:22;;;;;;;4.32;0.95;;;;;;;12.77;100.00;99264.13;5177461;28;20114;-72
2023/10/30 04:53:54;;;;;;;4.65;0.60;;;;;;;12.74;100.00;99261.72;5183955;28;20467;-72
2023/10/30 04:56:24;;;;;;;5.25;0.70;;;;;;;12.83;100.00;99271.59;5178452;28;20100;-72
2023/10/30 04:58:55;;;;;;;6.40;0.98;;;;;;;12.81;100.00;99270.84;5185135;28;20045;-72
2023/10/30 05:01:25;;;;;;;2.75;0.80;;;;;;;12.83;100.00;99274.19;5175503;28;20471;-72
2023/10/30 05:03:56;;;;;;;6.45;0.85;;;;;;;12.83;100.00;99268.97;5183433;28;20450;-72
2023/10/30 05:06:27;;;;;;;5.47;0.70;;;;;;;12.96;100.00;99267.25;5175002;28;20617;-72
2023/10/30 05:08:57;;;;;;;6.22;0.85;;;;;;;12.97;100.00;99255.81;5178529;28;20034;-71
2023/10/30 05:11:27;;;;;;;4.53;0.82;;;;;;;12.87;100.00;99264.38;5159245;28;20392;-72
2023/10/30 05:13:58;;;;;;;8.15;0.98;;;;;;;12.94;100.00;99263.91;5178659;28;20053;-72
2023/10/30 05:16:28;;;;;;;6.63;1.05;;;;;;;12.82;100.00;99256.78;5182118;28;20434;-72
2023/10/30 05:18:58;;;;;;;5.72;1.05;;;;;;;12.81;100.00;99256.91;5181189;28;20029;-72
2023/10/30 05:21:28;;;;;;;8.88;2.05;;;;;;;12.82;100.00;99264.66;5178019;28;20085;-72
2023/10/30 05:23:59;;;;;;;5.53;0.95;;;;;;;12.81;100.00;99270.84;5179593;28;20238;-72
2023/10/30 05:26:29;;;;;;;4.30;0.80;;;;;;;12.83;100.00;99279.44;5178754;28;20368;-72
2023/10/30 05:29:00;;;;;;;5.07;0.90;;;;;;;12.81;100.00;99280.50;5179827;28;20030;-72
2023/10/30 05:31:30;;;;;;;3.75;0.63;;;;;;;12.69;100.00;99271.66;5180709;28;20084;-72
2023/10/30 05:34:00;;;;;;;9.73;1.48;;;;;;;12.71;100.00;99277.66;5181986;28;20030;-72
2023/10/30 05:36:30;;;;;;;6.15;1.05;;;;;;;12.70;100.00;99273.34;5182402;28;20031;-72
2023/10/30 05:39:01;;;;;;;5.55;1.10;;;;;;;12.66;100.00;99273.63;5183398;28;20391;-72
2023/10/30 05:41:32;;;;;;;5.00;0.80;;;;;;;12.68;100.00;99263.88;5180745;28;20018;-72
2023/10/30 05:44:03;;;;;;;2.38;0.63;;;;;;;12.68;100.00;99263.88;5181044;28;20037;-72
2023/10/30 05:46:34;;;;;;;7.55;1.05;;;;;;;12.62;100.00;99262.50;5179093;28;20030;-72
2023/10/30 05:49:04;;;;;;;5.97;1.08;;;;;;;12.71;100.00;99259.28;5179513;28;20096;-72
2023/10/30 05:51:35;;;;;;;6.32;1.10;;;;;;;12.74;100.00;99264.34;5173798;28;20021;-72
2023/10/30 05:54:05;;;;;;;6.65;1.08;;;;;;;12.88;100.00;99266.03;5181213;28;20034;-72
2023/10/30 05:56:35;;;;;;;3.78;1.02;;;;;;;12.75;100.00;99276.50;5181922;28;20065;-72
2023/10/30 05:59:06;;;;;;;4.80;0.95;;;;;;;12.80;100.00;99265.72;5182595;28;20022;-72
2023/10/30 06:01:36;;;;;;;4.97;1.00;;;;;;;12.73;100.00;99270.53;5181716;28;20014;-72
2023/10/30 06:04:06;;;;;;;4.95;0.82;;;;;;;12.70;100.00;99272.50;5181914;28;20125;-72
2023/10/30 06:06:37;;;;;;;6.85;1.05;;;;;;;12.63;100.00;99282.53;5173420;28;20034;-72
2023/10/30 06:09:07;;;;;;;5.75;0.77;;;;;;;12.56;100.00;99283.88;5175726;28;20025;-72
2023/10/30 06:11:38;;;;;;;3.88;0.70;;;;;;;12.55;100.00;99278.72;5181173;28;20137;-72
2023/10/30 06:14:08;;;;;;;7.07;1.10;;;;;;;12.64;100.00;99289.44;5179377;28;20092;-72
2023/10/30 06:16:38;;;;;;;7.00;1.08;;;;;;;12.64;100.00;99299.94;5182006;28;20034;-72
2023/10/30 06:19:10;;;;;;;3.72;0.80;;;;;;;12.62;100.00;99307.06;5185490;28;20060;-72
2023/10/30 06:21:43;;;;;;;7.80;0.80;;;;;;;12.60;100.00;99318.59;5189730;28;20038;-72
2023/10/30 06:24:13;;;;;;;8.68;0.80;;;;;;;12.56;100.00;99322.31;5195245;28;20100;-72
2023/10/30 06:26:44;;;;;;;3.72;1.10;;;;;;;12.56;100.00;99322.31;5184067;28;20446;-72
2023/10/30 06:29:14;;;;;;;8.63;1.65;;;;;;;12.49;100.00;99326.28;5187115;28;20073;-72
2023/10/30 06:31:45;;;;;;;6.88;1.10;;;;;;;12.55;100.00;99336.38;5182536;28;20025;-72
2023/10/30 06:34:15;;;;;;;2.95;0.70;;;;;;;12.55;100.00;99334.59;5184297;28;20434;-72
2023/10/30 06:36:46;;;;;;;3.90;0.95;;;;;;;12.71;100.00;99337.09;5167314;28;20056;-72
2023/10/30 06:39:20;;;;;;;8.88;1.13;;;;;;;12.71;100.00;99343.19;5189349;28;20037;-72
2023/10/30 06:41:55;;;;;;;4.40;1.00;;;;;;;12.68;100.00;99343.38;5186742;28;20049;-72
2023/10/30 06:44:25;;;;;;;6.45;1.05;;;;;;;12.68;100.00;99337.28;5186069;28;20441;-72
2023/10/30 06:46:57;;;;;;;5.20;1.00;;;;;;;12.65;100.00;99340.09;5189245;28;20025;-72
2023/10/30 06:49:28;;;;;;;6.47;0.95;;;;;;;12.62;100.00;99348.16;5183835;28;20043;-72
2023/10/30 06:51:58;;;;;;;3.30;1.25;;;;;;;12.59;100.00;99349.19;5186656;28;20021;-72
2023/10/30 06:54:28;;;;;;;5.32;0.95;;;;;;;12.59;100.00;99343.94;5190679;28;20029;-72
2023/10/30 06:56:59;;;;;;;6.45;0.98;;;;;;;12.68;100.00;99353.88;5185590;28;20434;-72
2023/10/30 06:59:29;;;;;;;4.13;0.80;;;;;;;12.71;100.00;99358.06;5193669;28;20079;-72
2023/10/30 07:01:59;;;;;;;7.38;1.40;;;;;;;12.69;100.00;99358.16;5166140;28;20030;-72
2023/10/30 07:04:30;;;;;;;5.07;1.13;;;;;;;12.66;100.00;99353.09;5185203;28;20036;-72
2023/10/30 07:07:00;;;;;;;6.50;0.88;;;;;;;12.78;100.00;99354.94;5186753;28;20038;-72
2023/10/30 07:09:30;;;;;;;6.65;1.10;;;;;;;12.84;100.00;99362.41;5187166;28;20036;-72
2023/10/30 07:12:01;;;;;;;5.50;0.80;;;;;;;12.97;100.00;99355.47;5188888;28;20037;-72
2023/10/30 07:14:32;;;;;;;7.85;1.00;;;;;;;12.98;100.00;99353.72;5180115;28;20029;-72
2023/10/30 07:17:03;;;;;;;5.38;0.95;;;;;;;12.90;100.00;99356.78;5176538;28;20026;-72
2023/10/30 07:22:08;;;;;;;3.03;0.88;;;;;;;12.98;100.00;99359.78;5250159;22;20115;-75
2023/10/30 07:24:39;;;;;;;3.50;0.85;;;;;;;13.04;100.00;99364.66;5230806;28;20036;-75
2023/10/30 07:27:10;;;;;;;5.40;1.20;;;;;;;13.08;100.00;99368.75;5230258;28;20258;-78
2023/10/30 07:29:41;;;;;;;5.88;1.17;;;;;;;13.07;100.00;99364.44;5227469;28;20428;-77
2023/10/30 07:32:11;;;;;;;7.20;0.75;;;;;;;13.03;100.00;99363.78;5214785;28;20108;-73
2023/10/30 07:34:41;;;;;;;3.65;0.75;;;;;;;13.04;100.00;99369.91;5214152;28;20453;-76
2023/10/30 07:37:12;;;;;;;5.60;1.42;;;;;;;13.07;100.00;99360.03;5213378;28;20033;-76
2023/10/30 07:39:42;;;;;;;7.53;1.40;;;;;;;13.14;100.00;99361.31;5207812;28;20036;-76
2023/10/30 07:42:12;;;;;;;6.15;1.10;;;;;;;13.17;100.00;99352.41;5212978;28;20068;-74
2023/10/30 07:44:42;;;;;;;7.82;1.25;;;;;;;13.18;100.00;99349.69;5206801;28;21441;-77
2023/10/30 07:47:13;;;;;;;5.35;1.10;;;;;;;13.27;100.00;99346.44;5211058;28;20514;-76
2023/10/30 07:49:43;;;;;;;9.95;1.00;;;;;;;13.25;100.00;99350.13;5210512;28;20043;-76
2023/10/30 07:52:13;;;;;;;3.38;0.90;;;;;;;13.22;100.00;99345.91;5217079;28;20039;-76
2023/10/30 07:54:44;;;;;;;7.95;1.20;;;;;;;13.23;100.00;99346.75;5211792;28;20044;-75
2023/10/30 07:57:14;;;;;;;6.70;1.00;;;;;;;13.23;100.00;99344.16;5216982;28;20552;-76
2023/10/30 07:59:44;;;;;;;5.38;0.98;;;;;;;13.36;100.00;99348.47;5211806;28;20029;-76
2023/10/30 08:02:14;;;;;;;4.38;1.27;;;;;;;13.29;100.00;99347.22;5215011;28;20065;-75
2023/10/30 08:04:45;;;;;;;3.60;0.80;;;;;;;13.32;100.00;99356.63;5211576;28;20036;-76
2023/10/30 08:07:15;;;;;;;4.95;0.88;;;;;;;13.35;100.00;99348.56;5205073;28;20095;-77
2023/10/30 08:09:45;;;;;;;4.97;1.13;;;;;;;13.43;100.00;99360.22;5213570;28;20059;-75
2023/10/30 08:12:16;;;;;;;6.45;1.30;;;;;;;13.54;100.00;99367.41;5206142;28;20406;-75
2023/10/30 08:14:46;;;;;;;10.10;1.42;;;;;;;13.60;100.00;99362.56;5210629;28;20029;-76
2023/10/30 08:17:17;;;;;;;10.20;1.30;;;;;;;13.69;100.00;99355.88;5210173;28;20036;-76
2023/10/30 08:19:47;;;;;;;7.85;1.17;;;;;;;13.90;100.00;99359.69;5195007;28;20025;-77
2023/10/30 08:22:17;;;;;;;5.30;0.80;;;;;;;13.95;100.00;99349.69;5213921;28;20028;-77
2023/10/30 08:24:47;;;;;;;5.25;1.20;;;;;;;14.03;100.00;99355.25;5213830;28;20031;-77
2023/10/30 08:27:18;;;;;;;3.45;0.63;;;;;;;14.13;100.00;99356.31;5189257;28;20056;-76
2023/10/30 08:29:49;;;;;;;6.15;0.90;;;;;;;14.19;100.00;99361.16;5216622;28;20025;-76
2023/10/30 08:32:19;;;;;;;5.60;0.82;;;;;;;14.18;100.00;99355.06;5215298;28;20381;-78
2023/10/30 08:34:49;;;;;;;5.72;1.30;;;;;;;14.24;100.00;99359.91;5215396;28;20112;-76
2023/10/30 08:37:20;;;;;;;5.05;0.82;;;;;;;14.38;100.00;99359.78;5214810;28;20037;-77
2023/10/30 08:39:50;;;;;;;3.47;0.90;;;;;;;14.43;100.00;99365.53;5211625;28;20036;-77
2023/10/30 08:42:20;;;;;;;5.40;0.80;;;;;;;14.46;100.00;99370.56;5217473;28;20036;-76
2023/10/30 08:44:50;;;;;;;6.43;1.15;;;;;;;14.24;100.00;99377.47;5216104;28;20029;-76
2023/10/30 08:47:21;;;;;;;4.45;0.68;;;;;;;14.36;100.00;99384.47;5207292;28;20267;-75
2023/10/30 08:49:51;;;;;;;5.80;1.05;;;;;;;14.32;100.00;99389.13;5215702;28;20040;-76
2023/10/30 08:52:22;;;;;;;6.65;1.10;;;;;;;14.25;100.00;99387.03;5215848;28;20545;-76
2023/10/30 08:54:52;;;;;;;7.45;0.88;;;;;;;14.30;100.00;99379.66;5207557;28;20037;-77
2023/10/30 08:57:23;;;;;;;8.43;0.98;;;;;;;14.42;100.00;99381.44;5206640;28;20108;-77
2023/10/30 08:59:53;;;;;;;3.78;0.90;;;;;;;14.50;100.00;99387.84;5210092;28;20025;-76
2023/10/30 09:02:23;;;;;;;5.07;0.85;;;;;;;14.44;100.00;99390.06;5203505;28;20424;-77
2023/10/30 09:04:54;;;;;;;7.50;1.05;;;;;;;14.51;100.00;99384.25;5214130;28;20024;-77
2023/10/30 09:07:24;;;;;;;5.22;0.90;;;;;;;14.59;100.00;99397.69;5205855;28;20025;-73
2023/10/30 09:09:54;;;;;;;5.03;1.00;;;;;;;14.56;100.00;99376.88;5213593;28;20554;-77
2023/10/30 09:12:25;;;;;;;6.18;1.13;;;;;;;14.55;100.00;99395.38;5214361;28;20055;-73
2023/10/30 09:14:55;;;;;;;6.88;1.40;;;;;;;14.43;100.00;99397.09;5215315;28;20036;-76
2023/10/30 09:17:25;;;;;;;4.50;0.80;;;;;;;14.39;100.00;99393.00;5215985;28;20100;-74
2023/10/30 09:19:56;;;;;;;5.75;1.25;;;;;;;14.37;100.00;99386.16;5213273;28;20025;-76
2023/10/30 09:22:26;;;;;;;10.23;2.22;;;;;;;14.38;100.00;99399.19;5214720;28;20452;-77
2023/10/30 09:24:56;;;;;;;3.58;0.93;;;;;;;14.42;100.00;99405.91;5214095;28;20032;-75
2023/10/30 09:27:27;;;;;;;5.63;1.10;;;;;;;14.55;100.00;99406.75;5215297;28;20498;-77
2023/10/30 09:29:57;;;;;;;6.43;1.10;;;;;;;14.38;100.00;99403.59;5214401;28;20048;-74
2023/10/30 09:32:27;;;;;;;3.63;0.80;;;;;;;14.38;100.00;99409.72;5187446;28;20032;-76
2023/10/30 09:34:59;;;;;;;5.22;1.00;;;;;;;14.33;100.00;99413.59;5214249;28;20194;-73
2023/10/30 09:37:29;;;;;;;2.72;1.00;;;;;;;14.42;100.00;99415.63;5185762;28;20048;-77
2023/10/30 09:40:00;;;;;;;6.35;0.98;;;;;;;14.31;100.00;99411.09;5208106;28;20040;-77
2023/10/30 09:42:32;;;;;;;6.82;0.88;;;;;;;14.46;100.00;99417.06;5200261;28;20072;-77
2023/10/30 09:45:06;;;;;;;5.70;1.17;;;;;;;14.71;100.00;99417.03;5183253;28;20056;-77
2023/10/30 09:47:36;;;;;;;7.30;0.90;;;;;;;14.76;100.00;99409.66;5204332;28;20116;-77
2023/10/30 09:50:09;;;;;;;3.00;1.08;;;;;;;14.92;99.66;99411.94;5209334;28;20567;-76
2023/10/30 09:52:39;;;;;;;6.20;0.90;;;;;;;14.88;99.02;99414.88;5196886;28;20115;-76
2023/10/30 09:55:11;;;;;;;3.72;1.00;;;;;;;15.03;98.42;99419.06;5215511;28;20463;-76
2023/10/30 09:57:42;;;;;;;6.38;1.20;;;;;;;15.12;98.20;99429.75;5209325;28;20045;-77
2023/10/30 10:00:13;;;;;;;6.53;1.05;;;;;;;15.16;98.80;99435.66;5210213;28;20099;-76
2023/10/30 10:02:44;;;;;;;10.05;1.33;;;;;;;15.21;97.73;99428.25;5207452;28;20976;-76
2023/10/30 10:05:16;;;;;;;5.57;0.75;;;;;;;15.36;96.44;99412.19;5213702;28;20033;-76
2023/10/30 10:07:47;;;;;;;3.35;1.02;;;;;;;15.50;96.53;99414.66;5209813;28;20407;-75
2023/10/30 10:10:19;;;;;;;3.75;0.70;;;;;;;15.56;95.43;99398.41;5205011;28;20040;-77
2023/10/30 10:12:50;;;;;;;4.00;0.95;;;;;;;15.65;95.39;99387.19;5182346;28;20104;-76
2023/10/30 10:15:21;;;;;;;5.07;0.70;;;;;;;15.66;94.41;99382.75;5211634;28;20029;-76
2023/10/30 10:17:52;;;;;;;1.95;0.73;;;;;;;15.71;94.08;99392.00;5195732;28;20549;-76
2023/10/30 10:20:23;;;;;;;2.50;0.70;;;;;;;15.86;92.63;99388.19;5205700;28;20378;-76
2023/10/30 10:22:54;;;;;;;5.13;0.63;;;;;;;15.86;90.72;99401.38;5210434;28;20020;-77
2023/10/30 10:25:24;;;;;;;4.18;0.85;;;;;;;15.86;91.79;99398.75;5196385;28;20033;-72
2023/10/30 10:27:54;;;;;;;7.43;1.05;;;;;;;15.95;92.05;99395.41;5214327;28;20034;-76
2023/10/30 10:30:25;;;;;;;6.60;1.00;;;;;;;15.87;90.82;99391.69;5214541;28;20106;-75
2023/10/30 10:32:56;;;;;;;4.70;0.98;;;;;;;15.91;90.31;99393.94;5212485;28;20147;-78
2023/10/30 10:35:30;;;;;;;7.85;1.50;;;;;;;15.90;91.32;99397.53;5206842;28;20107;-76
2023/10/30 10:38:08;;;;;;;5.97;0.90;;;;;;;15.93;90.83;99397.34;5202587;28;20041;-76
2023/10/30 10:40:40;;;;;;;4.10;0.90;;;;;;;16.01;91.57;99405.47;5207519;28;20047;-73
2023/10/30 10:43:12;;;;;;;2.88;0.73;;;;;;;16.06;91.95;99405.97;5216428;28;20039;-77
2023/10/30 10:45:42;;;;;;;4.68;0.73;;;;;;;15.89;89.97;99406.41;5194039;28;20037;-77
2023/10/30 10:48:13;;;;;;;2.83;0.70;;;;;;;15.88;91.00;99399.47;5212068;28;20041;-77
2023/10/30 10:50:44;;;;;;;5.25;1.00;;;;;;;15.88;92.31;99402.09;5211385;28;20742;-76
2023/10/30 10:53:18;;;;;;;3.90;0.90;;;;;;;15.99;91.90;99394.22;5215914;28;20037;-78
2023/10/30 10:55:50;;;;;;;5.07;0.70;;;;;;;16.07;91.09;99389.19;5212475;28;20018;-77
2023/10/30 10:58:34;;;;;;;3.33;0.80;;;;;;;15.94;91.35;99377.94;5215432;28;20037;-77
2023/10/30 11:01:06;;;;;;;2.55;0.50;;;;;;;16.01;90.86;99373.84;5204627;28;20026;-74
2023/10/30 11:03:36;;;;;;;3.17;0.63;;;;;;;15.98;90.72;99374.09;5202848;28;20029;-75
2023/10/30 11:06:07;;;;;;;4.05;0.68;;;;;;;15.95;92.08;99369.06;5210404;28;20035;-76
2023/10/30 11:08:57;;;;;;;3.15;0.50;;;;;;;16.13;91.64;99367.66;5212360;28;20052;-74
2023/10/30 11:11:45;;;;;;;5.70;1.15;;;;;;;16.15;91.01;99360.47;5211020;28;20052;-76
2023/10/30 11:14:35;;;;;;;2.90;0.68;;;;;;;16.22;90.52;99356.38;5195000;28;20403;-76
2023/10/30 11:17:05;;;;;;;2.45;0.50;;;;;;;15.95;90.62;99353.25;5210815;28;20033;-76
2023/10/30 11:19:38;;;;;;;4.47;0.70;;;;;;;16.04;90.42;99354.34;5202842;28;20524;-74
2023/10/30 11:22:09;;;;;;;4.30;0.63;;;;;;;16.20;91.74;99342.47;5194176;28;20026;-77
2023/10/30 11:24:43;;;;;;;3.65;0.80;;;;;;;16.04;89.28;99344.63;5202881;28;20045;-74
2023/10/30 11:27:26;;;;;;;4.07;0.70;;;;;;;16.08;90.79;99343.44;5197206;28;20026;-76
2023/10/30 11:30:11;;;;;;;2.50;0.50;;;;;;;16.15;90.93;99347.28;5211386;28;20030;-77
2023/10/30 11:32:45;;;;;;;1.92;0.60;;;;;;;16.07;90.13;99341.75;5192256;28;20017;-73
2023/10/30 11:35:19;;;;;;;5.88;0.85;;;;;;;16.18;91.23;99341.75;5211277;28;20033;-77
2023/10/30 11:37:51;;;;;;;2.33;0.60;;;;;;;16.16;91.07;99341.06;5211927;28;20029;-77
2023/10/30 11:40:24;;;;;;;3.00;0.57;;;;;;;16.03;89.54;99335.03;5211938;28;20067;-74
2023/10/30 11:42:57;;;;;;;3.28;0.60;;;;;;;16.06;89.93;99337.44;5193904;28;20017;-76
2023/10/30 11:45:30;;;;;;;5.25;0.55;;;;;;;16.14;89.66;99342.13;5206832;28;20227;-76